createdAt,value
2022-08-11T00:00:13.750Z,78.60
2022-08-11T00:02:44.054Z,78.60
2022-08-11T00:05:16.412Z,78.80
2022-08-11T00:07:49.611Z,78.90
2022-08-11T00:10:20.295Z,79.00
2022-08-11T00:12:59.447Z,79.00
2022-08-11T00:15:36.839Z,79.10
2022-08-11T00:18:04.091Z,79.10
2022-08-11T00:20:33.025Z,79.20
2022-08-11T00:23:07.455Z,79.20
2022-08-11T00:25:39.691Z,79.30
2022-08-11T00:28:31.321Z,79.30
2022-08-11T00:31:04.455Z,79.50
2022-08-11T00:33:45.160Z,79.70
2022-08-11T00:36:16.181Z,79.80
2022-08-11T00:38:45.507Z,79.90
2022-08-11T00:41:48.711Z,80.10
2022-08-11T00:45:01.951Z,80.20
2022-08-11T00:47:31.795Z,80.30
2022-08-11T00:50:13.324Z,80.50
2022-08-11T00:53:19.055Z,80.70
2022-08-11T00:56:22.853Z,80.80
2022-08-11T00:59:34.518Z,81.00
2022-08-11T01:02:09.045Z,81.20
2022-08-11T01:05:12.183Z,81.40
2022-08-11T01:08:11.195Z,81.40
2022-08-11T01:11:03.012Z,81.60
2022-08-11T01:13:38.468Z,81.70
2022-08-11T01:16:05.216Z,81.80
2022-08-11T01:18:50.509Z,82.00
2022-08-11T01:21:39.268Z,82.10
2022-08-11T01:24:14.976Z,82.30
2022-08-11T01:26:54.000Z,82.50
2022-08-11T01:29:42.206Z,82.60
2022-08-11T01:32:51.196Z,82.80
2022-08-11T01:35:40.550Z,83.00
2022-08-11T01:38:31.868Z,83.20
2022-08-11T01:41:26.239Z,83.40
2022-08-11T01:44:29.984Z,83.50
2022-08-11T01:47:50.532Z,83.70
2022-08-11T01:50:38.910Z,83.90
2022-08-11T01:53:35.651Z,84.10
2022-08-11T01:56:23.323Z,84.20
2022-08-11T01:59:08.238Z,84.40
2022-08-11T02:01:41.214Z,84.60
2022-08-11T02:04:33.971Z,84.70
2022-08-11T02:07:12.741Z,84.90
2022-08-11T02:09:57.987Z,85.00
2022-08-11T02:12:52.670Z,85.20
2022-08-11T02:15:34.417Z,85.30
2022-08-11T02:18:08.178Z,85.50
2022-08-11T02:21:21.140Z,85.60
2022-08-11T02:24:08.118Z,85.90
2022-08-11T02:26:54.347Z,86.00
2022-08-11T02:29:47.453Z,86.10
2022-08-11T02:32:47.751Z,86.20
2022-08-11T02:35:19.233Z,86.30
2022-08-11T02:38:33.302Z,86.40
2022-08-11T02:41:34.172Z,86.60
2022-08-11T02:44:06.482Z,86.70
2022-08-11T02:47:14.513Z,86.80
2022-08-11T02:50:13.495Z,86.90
2022-08-11T02:53:06.056Z,86.90
2022-08-11T02:56:03.270Z,87.00
2022-08-11T02:59:08.692Z,87.10
2022-08-11T03:01:50.301Z,87.30
2022-08-11T03:04:49.949Z,87.40
2022-08-11T03:07:28.639Z,87.40
2022-08-11T03:10:10.138Z,87.60
2022-08-11T03:13:22.705Z,87.70
2022-08-11T03:16:26.313Z,87.70
2022-08-11T03:19:10.793Z,87.80
2022-08-11T03:22:02.506Z,88.00
2022-08-11T03:24:58.162Z,88.10
2022-08-11T03:27:52.497Z,88.30
2022-08-11T03:30:41.189Z,88.30
2022-08-11T03:33:44.308Z,88.50
2022-08-11T03:36:15.961Z,88.60
2022-08-11T03:39:08.048Z,88.60
2022-08-11T03:42:12.377Z,88.70
2022-08-11T03:45:15.403Z,88.80
2022-08-11T03:48:11.286Z,88.80
2022-08-11T03:51:06.099Z,88.90
2022-08-11T03:53:45.453Z,89.00
2022-08-11T03:56:30.613Z,89.10
2022-08-11T03:59:17.635Z,89.20
2022-08-11T04:02:04.982Z,89.20
2022-08-11T04:04:54.686Z,89.30
2022-08-11T04:07:41.687Z,89.40
2022-08-11T04:10:33.101Z,89.40
2022-08-11T04:13:37.463Z,89.50
2022-08-11T04:16:22.721Z,89.50
2022-08-11T04:19:09.779Z,89.50
2022-08-11T04:22:03.905Z,89.60
2022-08-11T04:24:58.378Z,89.60
2022-08-11T04:27:47.870Z,89.70
2022-08-11T04:30:41.390Z,89.70
2022-08-11T04:33:46.073Z,89.70
2022-08-11T04:36:48.934Z,89.70
2022-08-11T04:39:39.566Z,89.70
2022-08-11T04:42:49.106Z,89.70
2022-08-11T04:45:47.456Z,89.70
2022-08-11T04:48:35.461Z,89.60
2022-08-11T04:51:51.747Z,89.60
2022-08-11T04:54:55.165Z,89.60
2022-08-11T04:57:54.798Z,89.50
2022-08-11T05:00:44.192Z,89.40
2022-08-11T05:03:44.887Z,89.40
2022-08-11T05:06:50.956Z,89.30
2022-08-11T05:10:09.665Z,89.10
2022-08-11T05:12:49.500Z,89.00
2022-08-11T05:16:03.751Z,88.90
2022-08-11T05:18:51.808Z,88.70
2022-08-11T05:21:44.894Z,88.50
2022-08-11T05:24:59.796Z,88.30
2022-08-11T05:27:56.230Z,88.20
2022-08-11T05:30:48.259Z,88.10
2022-08-11T05:33:43.911Z,87.80
2022-08-11T05:36:30.022Z,87.70
2022-08-11T05:39:18.824Z,87.60
2022-08-11T05:42:04.641Z,87.50
2022-08-11T05:44:51.209Z,87.30
2022-08-11T05:47:44.407Z,87.10
2022-08-11T05:50:33.046Z,87.00
2022-08-11T05:53:20.129Z,87.00
2022-08-11T05:56:05.947Z,86.70
2022-08-11T05:58:44.527Z,86.50
2022-08-11T06:01:14.759Z,86.40
2022-08-11T06:04:04.128Z,86.40
2022-08-11T06:06:31.652Z,86.30
2022-08-11T06:08:59.311Z,86.10
2022-08-11T06:11:44.251Z,86.10
2022-08-11T06:14:12.559Z,86.00
2022-08-11T06:16:41.827Z,86.10
2022-08-11T06:19:10.481Z,85.80
2022-08-11T06:21:38.362Z,85.80
2022-08-11T06:24:12.577Z,85.80
2022-08-11T06:27:08.757Z,85.50
2022-08-11T06:29:38.022Z,85.50
2022-08-11T06:32:17.642Z,85.60
2022-08-11T06:35:01.749Z,85.20
2022-08-11T06:37:59.100Z,85.10
2022-08-11T06:41:10.695Z,85.30
2022-08-11T06:44:06.025Z,85.20
2022-08-11T06:46:38.935Z,85.00
2022-08-11T06:49:30.397Z,84.90
2022-08-11T06:52:34.943Z,84.70
2022-08-11T06:55:55.718Z,84.60
2022-08-11T06:58:51.183Z,84.50
2022-08-11T07:01:46.622Z,84.60
2022-08-11T07:04:57.365Z,84.50
2022-08-11T07:08:33.281Z,84.30
2022-08-11T07:11:19.787Z,84.10
2022-08-11T07:14:08.971Z,84.30
2022-08-11T07:16:40.571Z,83.90
2022-08-11T07:19:28.111Z,83.90
2022-08-11T07:22:15.873Z,83.90
2022-08-11T07:25:05.374Z,84.00
2022-08-11T07:28:01.457Z,83.70
2022-08-11T07:30:29.157Z,83.70
2022-08-11T07:32:59.932Z,83.00
2022-08-11T07:35:36.068Z,83.00
2022-08-11T07:38:11.947Z,83.00
2022-08-11T07:40:43.868Z,82.80
2022-08-11T07:43:12.787Z,83.10
2022-08-11T07:46:05.433Z,83.00
2022-08-11T07:48:52.263Z,82.30
2022-08-11T07:51:39.792Z,82.30
2022-08-11T07:54:16.861Z,81.80
2022-08-11T07:56:55.012Z,81.80
2022-08-11T08:00:00.641Z,81.40
2022-08-11T08:02:48.552Z,79.90
2022-08-11T08:05:37.029Z,80.30
2022-08-11T08:08:23.944Z,80.00
2022-08-11T08:11:10.945Z,80.00
2022-08-11T08:13:57.034Z,80.10
2022-08-11T08:16:42.829Z,80.00
2022-08-11T08:19:14.963Z,79.80
2022-08-11T08:21:45.414Z,78.80
2022-08-11T08:24:13.961Z,78.20
2022-08-11T08:27:00.879Z,78.10
2022-08-11T08:29:50.921Z,77.30
2022-08-11T08:32:18.961Z,76.10
2022-08-11T08:34:47.050Z,75.30
2022-08-11T08:37:45.806Z,75.50
2022-08-11T08:40:03.107Z,75.50
2022-08-11T08:42:32.761Z,73.70
2022-08-11T08:45:08.934Z,73.80
2022-08-11T08:47:43.541Z,73.60
2022-08-11T08:50:16.610Z,72.50
2022-08-11T08:52:50.867Z,71.20
2022-08-11T08:55:20.187Z,70.80
2022-08-11T08:57:49.717Z,69.50
2022-08-11T09:00:22.825Z,68.80
2022-08-11T09:02:51.655Z,67.80
2022-08-11T09:05:21.253Z,68.10
2022-08-11T09:07:51.256Z,68.10
2022-08-11T09:10:20.403Z,66.60
2022-08-11T09:12:48.924Z,66.70
2022-08-11T09:15:19.842Z,66.50
2022-08-11T09:18:06.005Z,66.50
2022-08-11T09:20:35.642Z,65.70
2022-08-11T09:26:30.534Z,65.50
2022-08-11T09:28:59.298Z,65.20
2022-08-11T09:31:26.974Z,65.50
2022-08-11T09:33:55.457Z,65.10
2022-08-11T09:36:41.787Z,63.60
2022-08-11T09:39:31.141Z,62.50
2022-08-11T09:42:04.364Z,62.30
2022-08-11T09:44:50.249Z,61.30
2022-08-11T09:47:26.143Z,61.80
2022-08-11T09:50:00.347Z,61.90
2022-08-11T09:52:30.876Z,62.90
2022-08-11T09:54:58.208Z,61.40
2022-08-11T09:57:44.446Z,64.30
2022-08-11T10:00:14.112Z,61.20
2022-08-11T10:02:48.471Z,60.70
2022-08-11T10:05:37.250Z,61.30
2022-08-11T10:08:05.950Z,61.60
2022-08-11T10:10:37.624Z,60.40
2022-08-11T10:14:30.206Z,61.10
2022-08-11T10:15:59.801Z,61.90
2022-08-11T10:18:42.791Z,60.90
2022-08-11T10:21:17.537Z,62.10
2022-08-11T10:24:05.629Z,61.30
2022-08-11T10:26:53.668Z,59.80
2022-08-11T10:29:45.362Z,60.00
2022-08-11T10:32:58.862Z,58.90
2022-08-11T10:35:31.648Z,60.10
2022-08-11T10:38:08.983Z,57.20
2022-08-11T10:40:41.175Z,55.60
2022-08-11T10:44:02.785Z,56.70
2022-08-11T10:46:29.655Z,59.50
2022-08-11T10:48:59.171Z,58.30
2022-08-11T10:51:51.042Z,57.50
2022-08-11T10:54:39.125Z,60.10
2022-08-11T10:57:24.745Z,56.60
2022-08-11T10:59:55.029Z,55.60
2022-08-11T11:02:22.619Z,55.90
2022-08-11T11:05:01.622Z,55.80
2022-08-11T11:07:44.056Z,58.80
2022-08-11T11:10:11.371Z,55.00
2022-08-11T11:13:14.521Z,55.10
2022-08-11T11:16:04.542Z,54.30
2022-08-11T11:18:41.868Z,53.60
2022-08-11T11:21:17.053Z,54.10
2022-08-11T11:24:16.020Z,51.80
2022-08-11T11:27:03.117Z,52.90
2022-08-11T11:30:20.879Z,53.90
2022-08-11T11:33:02.790Z,52.30
2022-08-11T11:35:55.787Z,51.10
2022-08-11T11:38:22.862Z,51.40
2022-08-11T11:41:10.260Z,52.10
2022-08-11T11:43:38.074Z,54.00
2022-08-11T11:46:06.548Z,53.40
2022-08-11T11:48:35.654Z,53.10
2022-08-11T11:51:02.983Z,52.40
2022-08-11T11:53:30.289Z,53.40
2022-08-11T11:55:59.631Z,53.60
2022-08-11T11:58:46.538Z,52.60
2022-08-11T12:01:17.429Z,51.10
2022-08-11T12:03:46.825Z,53.40
2022-08-11T12:06:14.548Z,51.10
2022-08-11T12:08:43.097Z,47.30
2022-08-11T12:11:30.396Z,51.10
2022-08-11T12:14:00.495Z,55.40
2022-08-11T12:16:33.060Z,50.50
2022-08-11T12:19:21.406Z,48.70
2022-08-11T12:22:07.834Z,50.20
2022-08-11T12:24:55.588Z,48.60
2022-08-11T12:27:25.104Z,52.30
2022-08-11T12:30:02.988Z,50.60
2022-08-11T12:32:32.524Z,50.90
2022-08-11T12:34:59.699Z,50.50
2022-08-11T12:37:32.489Z,50.40
2022-08-11T12:40:43.426Z,53.60
2022-08-11T12:43:37.363Z,49.80
2022-08-11T12:46:08.422Z,49.10
2022-08-11T12:49:02.043Z,51.60
2022-08-11T12:52:01.619Z,52.20
2022-08-11T12:54:58.746Z,48.50
2022-08-11T12:57:49.804Z,49.70
2022-08-11T13:00:37.075Z,48.30
2022-08-11T13:03:25.847Z,50.70
2022-08-11T13:05:56.372Z,48.20
2022-08-11T13:08:25.510Z,47.90
2022-08-11T13:11:13.074Z,47.10
2022-08-11T13:13:53.471Z,48.70
2022-08-11T13:16:56.862Z,50.50
2022-08-11T13:19:24.250Z,49.90
2022-08-11T13:21:52.956Z,48.30
2022-08-11T13:24:21.667Z,46.20
2022-08-11T13:26:50.577Z,49.80
2022-08-11T13:29:19.827Z,48.00
2022-08-11T13:31:47.701Z,46.20
2022-08-11T13:34:17.460Z,50.60
2022-08-11T13:36:45.368Z,49.00
2022-08-11T13:39:13.522Z,50.80
2022-08-11T13:41:45.126Z,49.30
2022-08-11T13:44:18.157Z,48.20
2022-08-11T13:46:48.858Z,50.90
2022-08-11T13:49:21.986Z,47.70
2022-08-11T13:51:49.574Z,49.80
2022-08-11T13:54:19.557Z,46.40
2022-08-11T13:56:49.133Z,46.20
2022-08-11T13:59:31.250Z,50.10
2022-08-11T14:02:22.126Z,47.50
2022-08-11T14:04:58.956Z,47.90
2022-08-11T14:07:35.496Z,49.40
2022-08-11T14:10:04.594Z,51.20
2022-08-11T14:12:52.354Z,48.50
2022-08-11T14:15:42.186Z,46.50
2022-08-11T14:18:21.637Z,45.90
2022-08-11T14:21:13.753Z,48.30
2022-08-11T14:23:43.240Z,47.10
2022-08-11T14:26:29.206Z,49.20
2022-08-11T14:29:08.286Z,48.70
2022-08-11T14:31:39.378Z,46.70
2022-08-11T14:34:12.492Z,47.90
2022-08-11T14:36:42.113Z,46.40
2022-08-11T14:39:12.842Z,47.20
2022-08-11T14:42:33.033Z,48.50
2022-08-11T14:45:26.629Z,49.50
2022-08-11T14:48:13.747Z,49.70
2022-08-11T14:50:40.961Z,48.10
2022-08-11T14:53:11.087Z,47.40
2022-08-11T14:56:02.333Z,48.50
2022-08-11T14:58:31.224Z,47.50
2022-08-11T15:01:00.122Z,46.60
2022-08-11T15:03:28.806Z,49.20
2022-08-11T15:06:00.043Z,48.40
2022-08-11T15:08:48.417Z,46.90
2022-08-11T15:11:36.334Z,46.90
2022-08-11T15:14:06.144Z,44.80
2022-08-11T15:16:51.870Z,47.50
2022-08-11T15:19:21.239Z,44.60
2022-08-11T15:22:08.211Z,43.40
2022-08-11T15:24:36.541Z,46.20
2022-08-11T15:27:31.030Z,46.10
2022-08-11T15:30:32.867Z,47.40
2022-08-11T15:33:23.204Z,43.10
2022-08-11T15:36:09.896Z,44.10
2022-08-11T15:38:42.405Z,42.50
2022-08-11T15:41:31.652Z,42.80
2022-08-11T15:44:18.403Z,43.50
2022-08-11T15:46:49.120Z,45.30
2022-08-11T15:50:10.893Z,46.50
2022-08-11T15:52:24.995Z,44.20
2022-08-11T15:54:52.351Z,44.50
2022-08-11T15:57:40.020Z,44.80
2022-08-11T16:00:26.799Z,43.90
2022-08-11T16:02:55.041Z,43.20
2022-08-11T16:05:44.984Z,43.00
2022-08-11T16:08:13.215Z,43.60
2022-08-11T16:10:44.109Z,42.80
2022-08-11T16:13:14.881Z,44.70
2022-08-11T16:16:05.891Z,44.20
2022-08-11T16:18:41.750Z,45.00
2022-08-11T16:21:26.780Z,42.90
2022-08-11T16:24:04.723Z,44.90
2022-08-11T16:27:10.192Z,43.50
2022-08-11T16:29:20.034Z,42.40
2022-08-11T16:32:07.966Z,44.90
2022-08-11T16:34:54.537Z,44.30
2022-08-11T16:37:42.070Z,43.90
2022-08-11T16:40:11.773Z,44.00
2022-08-11T16:43:09.163Z,43.80
2022-08-11T16:45:58.783Z,43.40
2022-08-11T16:48:35.096Z,43.50
2022-08-11T16:51:06.797Z,44.10
2022-08-11T16:53:46.065Z,44.00
2022-08-11T16:56:25.218Z,44.30
2022-08-11T16:59:13.548Z,43.90
2022-08-11T17:01:53.158Z,44.30
2022-08-11T17:04:48.769Z,44.90
2022-08-11T17:07:45.186Z,45.10
2022-08-11T17:10:56.633Z,45.00
2022-08-11T17:13:35.351Z,45.90
2022-08-11T17:16:09.055Z,44.70
2022-08-11T17:18:51.325Z,46.20
2022-08-11T17:21:24.126Z,46.60
2022-08-11T17:23:55.392Z,46.30
2022-08-11T17:26:58.513Z,46.70
2022-08-11T17:29:33.509Z,47.50
2022-08-11T17:32:56.678Z,47.40
2022-08-11T17:35:32.786Z,46.80
2022-08-11T17:38:17.150Z,47.30
2022-08-11T17:41:06.197Z,46.60
2022-08-11T17:43:52.574Z,47.40
2022-08-11T17:46:38.681Z,47.30
2022-08-11T17:49:09.806Z,47.90
2022-08-11T17:51:57.004Z,47.50
2022-08-11T17:54:44.014Z,47.60
2022-08-11T17:57:31.937Z,48.70
2022-08-11T17:59:59.647Z,48.10
2022-08-11T18:02:52.089Z,48.30
2022-08-11T18:05:20.183Z,47.80
2022-08-11T18:08:08.838Z,48.50
2022-08-11T18:10:55.061Z,48.40
2022-08-11T18:13:42.606Z,49.30
2022-08-11T18:16:29.177Z,49.20
2022-08-11T18:19:15.415Z,49.60
2022-08-11T18:22:14.992Z,49.70
2022-08-11T18:25:07.064Z,50.20
2022-08-11T18:27:54.722Z,50.00
2022-08-11T18:30:41.062Z,50.50
2022-08-11T18:36:39.891Z,51.30
2022-08-11T18:39:29.449Z,51.60
2022-08-11T18:42:28.837Z,51.90
2022-08-11T18:45:22.909Z,52.00
2022-08-11T18:48:11.504Z,52.40
2022-08-11T18:51:30.896Z,52.60
2022-08-11T18:54:11.769Z,52.90
2022-08-11T18:56:58.278Z,52.50
2022-08-11T18:59:47.122Z,52.80
2022-08-11T19:02:49.525Z,52.80
2022-08-11T19:06:06.088Z,53.20
2022-08-11T19:08:48.282Z,53.20
2022-08-11T19:11:34.601Z,53.90
2022-08-11T19:14:29.119Z,53.70
2022-08-11T19:17:44.398Z,54.40
2022-08-11T19:20:25.569Z,54.70
2022-08-11T19:23:14.740Z,54.70
2022-08-11T19:26:02.181Z,55.30
2022-08-11T19:28:48.185Z,55.10
2022-08-11T19:31:34.311Z,56.10
2022-08-11T19:34:20.874Z,55.60
2022-08-11T19:37:07.357Z,55.70
2022-08-11T19:39:54.534Z,56.10
2022-08-11T19:42:40.957Z,56.20
2022-08-11T19:45:26.919Z,56.50
2022-08-11T19:48:31.385Z,56.80
2022-08-11T19:51:19.376Z,57.20
2022-08-11T19:54:07.022Z,57.20
2022-08-11T19:56:53.538Z,57.40
2022-08-11T19:59:41.331Z,57.60
2022-08-11T20:02:27.327Z,57.50
2022-08-11T20:05:12.984Z,57.60
2022-08-11T20:07:59.649Z,57.90
2022-08-11T20:10:46.110Z,58.00
2022-08-11T20:13:33.375Z,58.10
2022-08-11T20:16:22.112Z,57.80
2022-08-11T20:19:10.719Z,57.80
2022-08-11T20:21:57.495Z,58.10
2022-08-11T20:24:43.768Z,58.30
2022-08-11T20:27:31.206Z,58.30
2022-08-11T20:30:17.267Z,58.10
2022-08-11T20:33:04.463Z,58.00
2022-08-11T20:35:51.142Z,57.60
2022-08-11T20:38:40.644Z,57.80
2022-08-11T20:41:28.846Z,57.30
2022-08-11T20:44:15.508Z,57.30
2022-08-11T20:47:02.227Z,57.10
2022-08-11T20:52:55.678Z,57.50
2022-08-11T20:55:52.110Z,57.90
2022-08-11T21:01:46.289Z,58.20
2022-08-11T21:04:32.841Z,58.50
2022-08-11T21:07:29.042Z,59.20
2022-08-11T21:10:29.286Z,59.20
2022-08-11T21:13:24.129Z,59.60
2022-08-11T21:16:26.533Z,60.10
2022-08-11T21:20:00.330Z,60.00
2022-08-11T21:22:59.339Z,60.20
2022-08-11T21:26:03.732Z,60.40
2022-08-11T21:28:52.367Z,60.50
2022-08-11T21:31:39.978Z,60.60
2022-08-11T21:34:28.983Z,60.80
2022-08-11T21:37:16.858Z,60.90
2022-08-11T21:40:04.096Z,60.90
2022-08-11T21:42:52.601Z,61.10
2022-08-11T21:45:39.235Z,61.20
2022-08-11T21:48:25.422Z,61.30
2022-08-11T21:51:10.984Z,61.50
2022-08-11T21:53:57.067Z,61.60
2022-08-11T21:56:45.258Z,61.70
2022-08-11T21:59:35.451Z,61.80
2022-08-11T22:02:21.353Z,61.90
2022-08-11T22:05:06.977Z,61.90
2022-08-11T22:07:52.511Z,62.10
2022-08-11T22:10:42.408Z,62.30
2022-08-11T22:13:31.151Z,62.40
2022-08-11T22:16:18.792Z,62.60
2022-08-11T22:19:07.820Z,62.70
2022-08-11T22:22:01.295Z,63.00
2022-08-11T22:24:52.078Z,62.90
2022-08-11T22:27:39.924Z,63.10
2022-08-11T22:30:29.452Z,63.30
2022-08-11T22:33:24.404Z,63.40
2022-08-11T22:36:12.965Z,63.70
2022-08-11T22:39:00.361Z,63.90
2022-08-11T22:41:46.504Z,64.40
2022-08-11T22:44:32.120Z,64.40
2022-08-11T22:47:22.035Z,64.70
2022-08-11T22:50:14.098Z,65.10
2022-08-11T22:53:00.622Z,65.50
2022-08-11T22:55:47.179Z,66.30
2022-08-11T22:58:34.103Z,66.70
2022-08-11T23:01:20.234Z,67.40
2022-08-11T23:04:07.125Z,68.20
2022-08-11T23:06:57.563Z,68.90
2022-08-11T23:09:43.519Z,69.60
2022-08-11T23:12:29.534Z,70.20
2022-08-11T23:15:15.006Z,70.70
2022-08-11T23:18:01.821Z,71.40
2022-08-11T23:20:53.495Z,71.60
2022-08-11T23:23:40.946Z,72.20
2022-08-11T23:26:26.915Z,72.50
2022-08-11T23:29:16.033Z,72.90
2022-08-11T23:32:03.989Z,73.40
2022-08-11T23:35:37.059Z,73.60
2022-08-11T23:38:00.715Z,73.90
2022-08-11T23:40:46.326Z,74.20
2022-08-11T23:43:41.961Z,74.30
2022-08-11T23:46:27.859Z,74.20
2022-08-11T23:49:20.935Z,74.40
2022-08-11T23:52:07.334Z,74.60
2022-08-11T23:54:54.504Z,74.70
2022-08-11T23:57:47.940Z,74.90
